createdAt,value
2018-12-10T00:04:46.905Z,99.90
2018-12-10T00:09:43.449Z,99.90
2018-12-10T00:14:37.961Z,99.90
2018-12-10T00:19:32.461Z,99.90
2018-12-10T00:24:26.957Z,99.90
2018-12-10T00:29:21.455Z,99.90
2018-12-10T00:34:16.016Z,99.90
2018-12-10T00:39:10.557Z,99.90
2018-12-10T00:44:05.105Z,99.90
2018-12-10T00:48:59.588Z,99.90
2018-12-10T00:53:54.042Z,99.90
2018-12-10T00:58:48.524Z,99.90
2018-12-10T01:03:43.089Z,99.90
2018-12-10T01:08:37.572Z,99.90
2018-12-10T01:13:32.052Z,99.90
2018-12-10T01:18:26.540Z,99.90
2018-12-10T01:23:21.035Z,99.90
2018-12-10T01:28:15.493Z,99.90
2018-12-10T01:33:09.981Z,99.90
2018-12-10T01:38:04.960Z,99.90
2018-12-10T01:42:59.436Z,99.90
2018-12-10T01:47:53.978Z,99.90
2018-12-10T01:52:48.462Z,99.90
2018-12-10T01:57:42.961Z,99.90
2018-12-10T02:02:37.459Z,99.90
2018-12-10T02:07:31.965Z,99.90
2018-12-10T02:12:26.477Z,99.90
2018-12-10T02:17:22.125Z,99.90
2018-12-10T02:22:16.626Z,99.90
2018-12-10T02:27:11.175Z,99.90
2018-12-10T02:32:05.685Z,99.90
2018-12-10T02:37:00.165Z,99.90
2018-12-10T02:41:54.652Z,99.90
2018-12-10T02:46:49.153Z,99.90
2018-12-10T02:51:43.611Z,99.90
2018-12-10T02:56:38.122Z,99.90
2018-12-10T03:01:32.630Z,99.90
2018-12-10T03:06:27.133Z,99.90
2018-12-10T03:11:21.646Z,99.90
2018-12-10T03:16:16.195Z,99.90
2018-12-10T03:21:10.745Z,99.90
2018-12-10T03:26:05.266Z,99.90
2018-12-10T03:30:59.827Z,99.90
2018-12-10T03:35:54.362Z,99.90
2018-12-10T03:40:48.856Z,99.90
2018-12-10T03:45:43.398Z,99.90
2018-12-10T03:50:37.929Z,99.90
2018-12-10T03:55:32.463Z,99.90
2018-12-10T04:00:27.002Z,99.90
2018-12-10T04:05:21.565Z,99.90
2018-12-10T04:10:16.070Z,99.90
2018-12-10T04:15:10.608Z,99.90
2018-12-10T04:20:05.326Z,99.90
2018-12-10T04:24:59.851Z,99.90
2018-12-10T04:29:54.418Z,99.90
2018-12-10T04:34:48.941Z,99.90
2018-12-10T04:39:43.465Z,99.90
2018-12-10T04:44:37.976Z,99.90
2018-12-10T04:49:32.495Z,99.90
2018-12-10T04:54:27.022Z,99.90
2018-12-10T04:59:22.777Z,99.90
2018-12-10T05:04:17.289Z,99.90
2018-12-10T05:09:11.866Z,99.90
2018-12-10T05:14:06.393Z,99.90
2018-12-10T05:19:00.898Z,99.90
2018-12-10T05:23:55.473Z,99.90
2018-12-10T05:28:49.994Z,99.90
2018-12-10T05:33:44.508Z,99.90
2018-12-10T05:38:39.013Z,99.90
2018-12-10T05:43:33.525Z,99.90
2018-12-10T05:48:28.025Z,99.90
2018-12-10T05:53:22.542Z,99.90
2018-12-10T05:58:17.784Z,99.90
2018-12-10T06:03:12.502Z,99.90
2018-12-10T06:08:07.001Z,99.90
2018-12-10T06:13:01.515Z,99.90
2018-12-10T06:17:56.175Z,99.90
2018-12-10T06:22:50.691Z,99.90
2018-12-10T06:27:45.349Z,99.90
2018-12-10T06:32:39.889Z,99.90
2018-12-10T06:37:37.649Z,99.90
2018-12-10T06:42:31.029Z,99.90
2018-12-10T06:47:25.574Z,99.90
2018-12-10T06:52:20.105Z,99.90
2018-12-10T06:57:14.655Z,99.90
2018-12-10T07:02:09.221Z,99.90
2018-12-10T07:07:04.305Z,99.90
2018-12-10T07:11:58.945Z,99.90
2018-12-10T07:16:54.513Z,99.90
2018-12-10T07:21:49.254Z,99.90
2018-12-10T07:26:43.774Z,99.90
2018-12-10T07:31:38.302Z,99.90
2018-12-10T07:36:32.844Z,99.90
2018-12-10T07:41:27.334Z,99.90
2018-12-10T07:46:21.925Z,99.90
2018-12-10T07:51:16.497Z,99.90
2018-12-10T07:56:11.109Z,99.90
2018-12-10T08:01:05.632Z,99.90
2018-12-10T08:06:00.244Z,99.90
2018-12-10T08:10:54.835Z,99.90
2018-12-10T08:15:49.441Z,99.90
2018-12-10T08:20:44.049Z,99.90
2018-12-10T08:25:38.627Z,99.90
2018-12-10T08:30:33.259Z,99.90
2018-12-10T08:35:27.919Z,99.90
2018-12-10T08:40:22.533Z,99.90
2018-12-10T08:45:18.782Z,99.90
2018-12-10T08:50:13.533Z,99.90
2018-12-10T08:55:08.152Z,99.90
2018-12-10T09:00:03.858Z,99.90
2018-12-10T09:04:59.654Z,99.90
2018-12-10T09:09:54.212Z,99.90
2018-12-10T09:14:48.798Z,99.90
2018-12-10T09:19:43.442Z,99.60
2018-12-10T09:24:38.103Z,95.60
2018-12-10T09:29:32.760Z,93.90
2018-12-10T09:34:27.417Z,93.20
2018-12-10T09:39:22.025Z,93.00
2018-12-10T09:44:16.569Z,92.70
2018-12-10T09:49:11.138Z,90.60
2018-12-10T09:54:05.653Z,90.40
2018-12-10T09:59:00.209Z,90.00
2018-12-10T10:03:54.709Z,88.50
2018-12-10T10:08:49.872Z,88.70
2018-12-10T10:13:44.687Z,88.40
2018-12-10T10:18:39.202Z,86.80
2018-12-10T10:23:34.628Z,86.50
2018-12-10T10:28:29.143Z,85.50
2018-12-10T10:33:32.047Z,84.10
2018-12-10T10:38:20.206Z,84.40
2018-12-10T10:43:14.720Z,83.80
2018-12-10T10:48:09.245Z,84.10
2018-12-10T10:53:03.771Z,81.80
2018-12-10T10:57:58.261Z,81.10
2018-12-10T11:02:53.556Z,80.10
2018-12-10T11:07:48.026Z,81.10
2018-12-10T11:12:42.529Z,79.50
2018-12-10T11:17:37.080Z,76.80
2018-12-10T11:22:31.540Z,70.50
2018-12-10T11:27:26.069Z,73.40
2018-12-10T11:32:20.555Z,76.00
2018-12-10T11:37:14.994Z,76.60
2018-12-10T11:42:09.432Z,75.10
2018-12-10T11:47:03.969Z,72.80
2018-12-10T11:51:58.406Z,70.90
2018-12-10T11:56:53.006Z,67.30
2018-12-10T12:01:47.541Z,64.30
2018-12-10T12:06:42.069Z,63.50
2018-12-10T12:11:36.565Z,62.10
2018-12-10T12:16:31.158Z,61.60
2018-12-10T12:21:25.699Z,59.30
2018-12-10T12:26:20.322Z,58.70
2018-12-10T12:31:14.906Z,58.20
2018-12-10T12:36:09.424Z,57.60
2018-12-10T12:41:03.953Z,57.50
2018-12-10T12:45:58.544Z,59.30
2018-12-10T12:50:53.079Z,58.50
2018-12-10T12:55:47.582Z,57.60
2018-12-10T13:00:42.287Z,58.30
2018-12-10T13:05:36.939Z,57.50
2018-12-10T13:10:31.518Z,58.30
2018-12-10T13:15:26.014Z,58.00
2018-12-10T13:20:20.493Z,57.50
2018-12-10T13:25:14.990Z,57.90
2018-12-10T13:30:09.658Z,57.80
2018-12-10T13:35:04.307Z,58.30
2018-12-10T13:39:58.789Z,57.40
2018-12-10T13:44:53.438Z,56.90
2018-12-10T13:49:48.042Z,56.60
2018-12-10T13:54:43.079Z,56.60
2018-12-10T13:59:37.658Z,56.70
2018-12-10T14:04:37.225Z,57.10
2018-12-10T14:09:31.789Z,57.10
2018-12-10T14:14:26.428Z,58.10
2018-12-10T14:19:21.149Z,56.70
2018-12-10T14:24:15.997Z,56.80
2018-12-10T14:29:10.560Z,56.30
2018-12-10T14:34:10.287Z,57.10
2018-12-10T14:39:08.901Z,57.70
2018-12-10T14:44:03.465Z,58.50
2018-12-10T14:48:58.560Z,58.70
2018-12-10T14:53:53.191Z,59.50
2018-12-10T14:58:47.698Z,59.80
2018-12-10T15:03:42.224Z,60.80
2018-12-10T15:08:36.779Z,61.60
2018-12-10T15:13:31.587Z,61.70
2018-12-10T15:18:26.234Z,62.40
2018-12-10T15:23:20.702Z,63.50
2018-12-10T15:28:15.276Z,64.10
2018-12-10T15:33:09.768Z,63.90
2018-12-10T15:38:04.342Z,65.10
2018-12-10T15:42:58.908Z,64.30
2018-12-10T15:47:53.397Z,62.90
2018-12-10T15:52:47.957Z,63.00
2018-12-10T15:57:43.583Z,63.20
2018-12-10T16:02:38.132Z,63.90
2018-12-10T16:07:32.681Z,66.90
2018-12-10T16:12:27.175Z,69.00
2018-12-10T16:17:21.681Z,71.80
2018-12-10T16:22:16.291Z,72.70
2018-12-10T16:27:11.128Z,75.20
2018-12-10T16:32:05.677Z,77.80
2018-12-10T16:37:00.225Z,79.40
2018-12-10T16:42:00.028Z,79.90
2018-12-10T16:47:00.821Z,82.00
2018-12-10T16:52:00.416Z,84.20
2018-12-10T16:56:59.831Z,85.60
2018-12-10T17:01:54.635Z,87.20
2018-12-10T17:06:49.322Z,89.40
2018-12-10T17:11:44.296Z,90.50
2018-12-10T17:16:39.218Z,91.40
2018-12-10T17:21:33.854Z,92.00
2018-12-10T17:26:28.582Z,92.30
2018-12-10T17:31:23.934Z,92.60
2018-12-10T17:36:18.681Z,93.30
2018-12-10T17:41:13.217Z,94.10
2018-12-10T17:46:07.732Z,94.40
2018-12-10T17:51:02.334Z,94.60
2018-12-10T17:55:57.009Z,94.50
2018-12-10T18:00:51.516Z,94.80
2018-12-10T18:05:46.066Z,94.80
2018-12-10T18:10:40.789Z,95.30
2018-12-10T18:15:35.338Z,95.80
2018-12-10T18:20:29.841Z,96.10
2018-12-10T18:25:24.366Z,96.20
2018-12-10T18:30:18.884Z,96.70
2018-12-10T18:35:13.815Z,97.00
2018-12-10T18:40:12.824Z,97.00
2018-12-10T18:45:10.751Z,96.90
2018-12-10T18:50:05.344Z,97.00
2018-12-10T18:54:59.983Z,97.10
2018-12-10T18:59:54.609Z,97.60
2018-12-10T19:04:49.137Z,98.10
2018-12-10T19:09:43.673Z,98.80
2018-12-10T19:14:38.170Z,99.30
2018-12-10T19:19:32.690Z,99.60
2018-12-10T19:24:27.349Z,99.90
2018-12-10T19:29:21.954Z,99.90
2018-12-10T19:34:16.447Z,99.90
2018-12-10T19:39:11.786Z,99.90
2018-12-10T19:44:09.478Z,99.90
2018-12-10T19:49:05.098Z,99.90
2018-12-10T19:54:00.760Z,99.90
2018-12-10T19:58:55.620Z,99.90
2018-12-10T20:03:50.192Z,99.90
2018-12-10T20:08:45.419Z,99.90
2018-12-10T20:13:40.001Z,99.90
2018-12-10T20:18:34.530Z,99.90
2018-12-10T20:23:29.303Z,99.90
2018-12-10T20:28:23.861Z,99.90
2018-12-10T20:33:18.435Z,99.90
2018-12-10T20:38:13.031Z,99.90
2018-12-10T20:43:07.629Z,99.90
2018-12-10T20:48:02.170Z,99.90
2018-12-10T20:52:56.678Z,99.90
2018-12-10T20:57:51.291Z,99.90
2018-12-10T21:02:45.886Z,99.90
2018-12-10T21:07:40.394Z,99.90
2018-12-10T21:12:35.013Z,99.90
2018-12-10T21:17:29.530Z,99.90
2018-12-10T21:22:24.107Z,99.90
2018-12-10T21:27:18.607Z,99.90
2018-12-10T21:32:13.105Z,99.90
2018-12-10T21:37:07.618Z,99.90
2018-12-10T21:42:02.120Z,99.90
2018-12-10T21:46:57.661Z,99.90
2018-12-10T21:51:52.409Z,99.90
2018-12-10T21:56:46.885Z,99.90
2018-12-10T22:01:41.397Z,99.90
2018-12-10T22:06:35.980Z,99.90
2018-12-10T22:11:30.501Z,99.90
2018-12-10T22:16:25.081Z,99.90
2018-12-10T22:21:19.575Z,99.90
2018-12-10T22:26:14.084Z,99.90
2018-12-10T22:31:08.568Z,99.90
2018-12-10T22:36:03.085Z,99.90
2018-12-10T22:40:57.589Z,99.90
2018-12-10T22:45:52.088Z,99.90
2018-12-10T22:50:46.664Z,99.90
2018-12-10T22:55:42.351Z,99.90
2018-12-10T23:00:44.667Z,99.90
2018-12-10T23:05:42.215Z,99.90
2018-12-10T23:10:38.763Z,99.90
2018-12-10T23:15:33.252Z,99.90
2018-12-10T23:20:27.766Z,99.90
2018-12-10T23:25:22.321Z,99.90
2018-12-10T23:30:16.836Z,99.90
2018-12-10T23:35:11.373Z,99.90
2018-12-10T23:40:06.196Z,99.90
2018-12-10T23:45:00.720Z,99.90
2018-12-10T23:49:55.222Z,99.90
2018-12-10T23:54:49.714Z,99.90
2018-12-10T23:59:44.218Z,99.90
